TimeCST,TemperatureF,Dew PointF,Humidity,Sea Level PressureIn,VisibilityMPH,Wind Direction,Wind SpeedMPH,Gust SpeedMPH,PrecipitationIn,Events,Conditions,WindDirDegrees,DateUTC
12:15 AM,-13.0,-21.3,67,30.47,10.0,Calm,Calm,-,N/A,,Clear,0,2014-03-03 06:15:00
12:35 AM,-12.3,-20.2,68,30.47,10.0,Calm,Calm,-,N/A,,Clear,0,2014-03-03 06:35:00
12:55 AM,-12.8,-20.9,67,30.46,10.0,Calm,Calm,-,N/A,,Clear,0,2014-03-03 06:55:00
1:15 AM,-12.5,-21.1,65,30.45,10.0,SSE,4.6,-,N/A,,Clear,160,2014-03-03 07:15:00
1:35 AM,-12.8,-21.1,67,30.44,10.0,SSE,5.8,-,N/A,,Clear,160,2014-03-03 07:35:00
1:55 AM,-13.2,-21.1,68,30.43,10.0,SSE,5.8,-,N/A,,Clear,150,2014-03-03 07:55:00
2:15 AM,-12.6,-20.9,67,30.42,10.0,SSE,5.8,-,N/A,,Clear,150,2014-03-03 08:15:00
2:35 AM,-12.1,-20.4,67,30.41,10.0,SSE,6.9,-,N/A,,Clear,160,2014-03-03 08:35:00
2:55 AM,-12.1,-20.9,65,30.40,10.0,South,8.1,-,N/A,,Clear,170,2014-03-03 08:55:00
3:15 AM,-11.9,-20.4,66,30.38,10.0,SSE,8.1,-,N/A,,Clear,160,2014-03-03 09:15:00
3:35 AM,-11.2,-20.2,64,30.37,10.0,South,8.1,-,N/A,,Clear,190,2014-03-03 09:35:00
3:55 AM,-11.0,-20.0,64,30.35,10.0,South,8.1,-,N/A,,Scattered Clouds,170,2014-03-03 09:55:00
4:15 AM,-10.3,-19.5,64,30.35,10.0,SSE,8.1,-,N/A,,Clear,160,2014-03-03 10:15:00
4:35 AM,-10.3,-19.5,64,30.33,10.0,South,8.1,-,N/A,,Clear,170,2014-03-03 10:35:00
4:55 AM,-10.3,-19.3,65,30.31,10.0,SSE,8.1,-,N/A,,Clear,160,2014-03-03 10:55:00
5:15 AM,-10.3,-19.3,65,30.32,10.0,SSE,6.9,-,N/A,,Clear,160,2014-03-03 11:15:00
5:35 AM,-9.2,-18.4,64,30.31,10.0,SSE,6.9,-,N/A,,Clear,150,2014-03-03 11:35:00
5:55 AM,-8.3,-17.5,64,30.30,10.0,SSE,5.8,-,N/A,,Clear,150,2014-03-03 11:55:00
6:15 AM,-8.7,-17.9,64,30.28,10.0,SSE,9.2,-,N/A,,Clear,150,2014-03-03 12:15:00
6:35 AM,-8.7,-17.9,64,30.27,10.0,SSE,11.5,-,N/A,,Clear,160,2014-03-03 12:35:00
6:55 AM,-8.7,-17.9,64,30.26,10.0,SSE,9.2,-,N/A,,Clear,160,2014-03-03 12:55:00
7:15 AM,-7.6,-16.8,64,30.26,10.0,SSE,12.7,-,N/A,,Clear,160,2014-03-03 13:15:00
7:35 AM,-6.3,-15.9,63,30.25,10.0,South,12.7,-,N/A,,Clear,170,2014-03-03 13:35:00
7:55 AM,-5.3,-14.8,63,30.24,10.0,SSE,12.7,-,N/A,,Clear,160,2014-03-03 13:55:00
8:15 AM,-3.5,-13.4,63,30.24,10.0,South,13.8,-,N/A,,Clear,170,2014-03-03 14:15:00
8:35 AM,-1.3,-12.1,60,30.24,10.0,South,17.3,20.7,N/A,,Clear,170,2014-03-03 14:35:00
8:55 AM,0.5,-10.5,60,30.23,10.0,South,16.1,-,N/A,,Clear,180,2014-03-03 14:55:00
9:15 AM,2.1,-9.0,60,30.22,10.0,South,13.8,-,N/A,,Clear,170,2014-03-03 15:15:00
9:35 AM,3.6,-8.0,59,30.21,10.0,South,18.4,-,N/A,,Clear,170,2014-03-03 15:35:00
9:55 AM,4.6,-7.1,58,30.20,10.0,South,20.7,25.3,N/A,,Clear,170,2014-03-03 15:55:00
10:15 AM,5.9,-6.0,58,30.19,10.0,South,16.1,25.3,N/A,,Clear,170,2014-03-03 16:15:00
10:35 AM,7.5,-4.9,57,30.18,10.0,South,20.7,25.3,N/A,,Scattered Clouds,170,2014-03-03 16:35:00
10:55 AM,9.5,-4.0,54,30.17,10.0,South,21.9,-,N/A,,Clear,170,2014-03-03 16:55:00
12:35 PM,15.8,0.5,51,30.09,10.0,South,21.9,31.1,N/A,,Clear,180,2014-03-03 18:35:00
12:55 PM,17.6,1.8,50,30.07,10.0,South,24.2,33.4,N/A,,Clear,190,2014-03-03 18:55:00
1:15 PM,18.3,2.3,50,30.06,10.0,South,24.2,31.1,N/A,,Scattered Clouds,180,2014-03-03 19:15:00
1:35 PM,18.3,2.3,50,30.04,10.0,South,21.9,31.1,N/A,,Mostly Cloudy,180,2014-03-03 19:35:00
2:17 PM,19.4,3.2,49,30.03,10.0,South,17.3,-,N/A,,Overcast,180,2014-03-03 20:17:00
2:37 PM,21.2,5.0,50,30.03,10.0,South,17.3,28.8,N/A,,Scattered Clouds,190,2014-03-03 20:37:00
2:58 PM,24.8,6.8,46,30.01,10.0,SSW,19.6,-,N/A,,Clear,200,2014-03-03 20:58:00
3:18 PM,23.0,6.8,50,30.01,10.0,South,19.6,25.3,N/A,,Clear,190,2014-03-03 21:18:00
3:38 PM,24.8,8.6,50,30.00,10.0,SSW,20.7,27.6,N/A,,Clear,200,2014-03-03 21:38:00
3:59 PM,24.8,8.6,50,30.00,10.0,SSW,17.3,26.5,N/A,,Clear,200,2014-03-03 21:59:00
4:18 PM,24.8,8.6,50,30.00,10.0,SSW,18.4,26.5,N/A,,Clear,200,2014-03-03 22:18:00
4:40 PM,24.8,10.4,54,29.99,10.0,South,13.8,-,N/A,,Clear,190,2014-03-03 22:40:00
4:58 PM,24.8,10.4,54,29.99,10.0,South,11.5,-,N/A,,Scattered Clouds,190,2014-03-03 22:58:00
5:18 PM,26.6,10.4,51,29.98,10.0,South,11.5,-,N/A,,Scattered Clouds,190,2014-03-03 23:18:00
5:38 PM,26.6,12.2,55,29.98,10.0,South,9.2,-,N/A,,Clear,190,2014-03-03 23:38:00
5:58 PM,26.6,12.2,55,29.99,10.0,South,6.9,-,N/A,,Clear,180,2014-03-03 23:58:00
6:18 PM,24.8,12.2,59,29.99,10.0,South,5.8,-,N/A,,Clear,190,2014-03-04 00:18:00
6:38 PM,21.2,10.4,63,29.98,10.0,SSE,6.9,-,N/A,,Clear,160,2014-03-04 00:38:00
6:58 PM,21.2,10.4,63,29.99,10.0,SSE,5.8,-,N/A,,Clear,160,2014-03-04 00:58:00
7:18 PM,21.2,10.4,63,29.99,10.0,South,6.9,-,N/A,,Clear,170,2014-03-04 01:18:00
7:38 PM,21.2,10.4,63,29.99,10.0,South,5.8,-,N/A,,Clear,170,2014-03-04 01:38:00
7:58 PM,19.4,10.4,68,29.98,10.0,South,5.8,-,N/A,,Clear,170,2014-03-04 01:58:00
8:18 PM,19.4,10.4,68,29.98,10.0,South,4.6,-,N/A,,Clear,170,2014-03-04 02:18:00
8:38 PM,19.4,10.4,68,29.97,10.0,South,8.1,-,N/A,,Clear,170,2014-03-04 02:38:00
8:59 PM,19.4,10.4,68,29.97,10.0,South,5.8,-,N/A,,Clear,170,2014-03-04 02:59:00
9:18 PM,19.4,10.4,68,29.98,10.0,South,5.8,-,N/A,,Clear,180,2014-03-04 03:18:00
9:38 PM,19.4,10.4,68,29.97,10.0,South,6.9,-,N/A,,Clear,190,2014-03-04 03:38:00
9:58 PM,19.4,10.4,68,29.98,10.0,South,5.8,-,N/A,,Clear,190,2014-03-04 03:58:00
10:18 PM,19.4,10.4,68,29.98,10.0,South,6.9,-,N/A,,Clear,190,2014-03-04 04:18:00
10:38 PM,19.4,10.4,68,29.98,10.0,South,5.8,-,N/A,,Clear,190,2014-03-04 04:38:00
10:58 PM,19.4,12.2,74,29.98,10.0,SSW,8.1,-,N/A,,Clear,200,2014-03-04 04:58:00
11:18 PM,19.4,10.4,68,29.98,10.0,SW,6.9,-,N/A,,Clear,220,2014-03-04 05:18:00
11:38 PM,17.6,10.4,73,29.98,10.0,WNW,4.6,-,N/A,,Clear,290,2014-03-04 05:38:00
11:58 PM,17.6,10.4,73,29.98,10.0,West,3.5,-,N/A,,Clear,260,2014-03-04 05:58:00